Time;durP1;ratioP1;P1;durP2;ratioP2;P2;SDS_P1;SDS_P2;PMS_P1;PMS_P2;Temp;Humidity;BMP_temperature;BMP_pressure;BME280_temperature;BME280_humidity;BME280_pressure;Samples;Min_cycle;Max_cycle;Signal;HPM_P1;HPM_P2
2024/04/04 00:01:23;;;;;;;8.90;1.65;;;;;;;13.81;56.49;100679.22;4931698;28;100316;-89
2024/04/04 00:03:49;;;;;;;13.27;1.92;;;;;;;13.76;56.60;100686.22;4942614;28;96824;-90
2024/04/04 00:06:14;;;;;;;12.18;1.98;;;;;;;13.72;56.54;100674.88;4948698;28;115063;-88
2024/04/04 00:08:39;;;;;;;13.20;2.20;;;;;;;13.68;56.54;100679.25;4943933;28;96927;-88
2024/04/04 00:11:09;;;;;;;14.43;2.00;;;;;;;13.64;56.74;100680.16;4960335;28;100285;-89
2024/04/04 00:13:38;;;;;;;10.70;1.95;;;;;;;13.61;56.65;100674.91;4948320;28;96735;-88
2024/04/04 00:16:04;;;;;;;11.27;2.08;;;;;;;13.59;56.71;100673.19;4932686;28;96866;-89
2024/04/04 00:18:30;;;;;;;9.85;1.95;;;;;;;13.57;56.82;100662.69;4948982;28;97054;-89
2024/04/04 00:20:55;;;;;;;13.60;2.35;;;;;;;13.54;56.85;100664.44;4950741;28;97919;-91
2024/04/04 00:23:20;;;;;;;11.57;1.85;;;;;;;13.52;56.72;100659.22;4945784;28;100578;-88
2024/04/04 00:25:47;;;;;;;10.75;1.98;;;;;;;13.49;56.70;100659.22;4956768;28;96860;-90
2024/04/04 00:28:12;;;;;;;9.48;1.63;;;;;;;13.47;56.83;100645.25;4949209;28;96861;-90
2024/04/04 00:30:38;;;;;;;9.82;1.92;;;;;;;13.46;56.94;100638.28;4947240;28;99894;-88
2024/04/04 00:33:04;;;;;;;7.88;2.00;;;;;;;13.46;56.78;100646.13;4948803;28;100598;-87
2024/04/04 00:35:29;;;;;;;14.77;1.92;;;;;;;13.43;56.73;100641.75;4930877;28;96917;-89
2024/04/04 00:37:54;;;;;;;9.68;2.25;;;;;;;13.41;56.64;100640.91;4945641;28;97071;-88
2024/04/04 00:40:20;;;;;;;8.95;2.00;;;;;;;13.39;56.69;100633.94;4931661;28;100208;-85
2024/04/04 00:42:49;;;;;;;9.82;1.70;;;;;;;13.37;56.85;100631.31;4946878;28;99986;-84
2024/04/04 00:45:15;;;;;;;13.55;2.22;;;;;;;13.37;56.82;100628.69;4945586;28;96784;-85
2024/04/04 00:47:43;;;;;;;12.85;2.35;;;;;;;13.36;56.64;100616.44;4922165;28;96957;-85
2024/04/04 00:50:09;;;;;;;8.40;1.88;;;;;;;13.33;56.62;100616.44;4946982;28;100800;-84
2024/04/04 00:52:34;;;;;;;11.45;2.13;;;;;;;13.27;56.65;100617.31;4943717;28;97725;-84
2024/04/04 00:55:01;;;;;;;8.18;1.80;;;;;;;13.25;56.77;100620.81;4943559;28;96801;-84
2024/04/04 00:57:26;;;;;;;9.52;2.00;;;;;;;13.21;56.77;100625.19;4946825;28;96780;-84
2024/04/04 00:59:53;;;;;;;9.65;2.28;;;;;;;13.16;56.55;100616.47;4929044;28;100278;-85
2024/04/04 01:02:18;;;;;;;13.32;2.30;;;;;;;13.11;56.77;100623.47;4926989;28;100503;-84
2024/04/04 01:04:44;;;;;;;9.35;2.25;;;;;;;13.08;56.95;100624.34;4942726;28;96813;-84
2024/04/04 01:07:12;;;;;;;11.65;1.95;;;;;;;13.04;57.15;100609.50;4930526;28;97000;-85
2024/04/04 01:09:38;;;;;;;15.52;2.42;;;;;;;13.03;56.84;100610.38;4929985;28;100662;-85
2024/04/04 01:12:03;;;;;;;10.98;2.25;;;;;;;13.00;57.02;100607.75;4944460;28;97731;-84
2024/04/04 01:14:29;;;;;;;6.32;1.80;;;;;;;12.99;57.03;100615.63;4943198;28;96821;-85
2024/04/04 01:16:54;;;;;;;9.20;2.20;;;;;;;13.00;57.21;100620.00;4946789;28;97097;-87
2024/04/04 01:19:20;;;;;;;9.77;1.83;;;;;;;12.98;57.25;100613.84;4930101;28;100389;-85
2024/04/04 01:21:45;;;;;;;12.32;1.92;;;;;;;12.96;57.15;100606.03;4930117;28;99662;-84
2024/04/04 01:24:10;;;;;;;8.05;1.83;;;;;;;12.97;57.45;100601.66;4947203;28;96946;-85
2024/04/04 01:26:36;;;;;;;10.77;1.50;;;;;;;12.97;57.66;100592.06;4944651;28;96926;-84
2024/04/04 01:29:01;;;;;;;8.68;2.30;;;;;;;12.93;57.86;100606.88;4954231;28;100189;-85
2024/04/04 01:31:27;;;;;;;10.82;2.10;;;;;;;12.91;58.00;100602.53;4940137;28;97715;-84
2024/04/04 01:33:52;;;;;;;7.00;1.65;;;;;;;12.87;58.27;100601.69;4949169;28;96805;-83
2024/04/04 01:36:17;;;;;;;14.60;2.45;;;;;;;12.85;58.77;100598.19;4929687;28;96876;-86
2024/04/04 01:38:43;;;;;;;10.90;2.28;;;;;;;12.85;58.79;100594.69;4939981;28;100603;-85
2024/04/04 01:41:08;;;;;;;8.07;1.77;;;;;;;12.84;58.89;100587.72;4928404;28;100527;-85
2024/04/04 01:43:34;;;;;;;9.25;1.75;;;;;;;12.83;58.89;100599.03;4919556;28;96930;-85
2024/04/04 01:45:59;;;;;;;11.00;2.22;;;;;;;12.83;59.18;100588.56;4944412;28;96925;-85
2024/04/04 01:48:24;;;;;;;10.65;2.20;;;;;;;12.82;59.11;100585.09;4937139;28;100176;-85
2024/04/04 01:50:50;;;;;;;12.27;2.67;;;;;;;12.84;59.32;100583.34;4946679;28;97909;-85
2024/04/04 01:53:15;;;;;;;11.75;2.63;;;;;;;12.82;59.41;100577.25;4928669;28;96894;-85
2024/04/04 01:55:41;;;;;;;10.52;2.28;;;;;;;12.82;59.45;100566.78;4926866;28;97009;-85
2024/04/04 01:58:06;;;;;;;10.68;2.42;;;;;;;12.84;59.40;100569.41;4945725;28;100623;-85
2024/04/04 02:00:31;;;;;;;15.25;2.72;;;;;;;12.85;59.55;100566.78;4941248;28;100741;-85
2024/04/04 02:02:58;;;;;;;10.10;2.95;;;;;;;12.85;59.55;100560.66;4956913;28;97288;-85
2024/04/04 02:05:23;;;;;;;8.80;2.45;;;;;;;12.84;59.48;100564.16;4928706;28;96941;-85
2024/04/04 02:07:49;;;;;;;10.75;2.50;;;;;;;12.83;59.63;100560.66;4929011;28;99865;-85
2024/04/04 02:10:14;;;;;;;9.18;2.38;;;;;;;12.85;59.65;100552.78;4930309;28;100555;-85
2024/04/04 02:12:41;;;;;;;10.02;2.25;;;;;;;12.85;59.71;100552.78;4945314;28;96829;-85
2024/04/04 02:15:09;;;;;;;12.65;2.83;;;;;;;12.87;59.77;100548.44;4945323;28;96926;-85
2024/04/04 02:17:36;;;;;;;11.18;2.63;;;;;;;12.89;59.78;100544.09;4935811;28;100602;-85
2024/04/04 02:20:01;;;;;;;11.20;2.40;;;;;;;12.90;59.62;100541.44;4921866;28;100474;-85
2024/04/04 02:22:27;;;;;;;11.60;2.50;;;;;;;12.88;59.72;100532.72;4943787;28;96942;-85
2024/04/04 02:24:52;;;;;;;12.20;2.88;;;;;;;12.89;59.90;100525.75;4928859;28;96848;-85
2024/04/04 02:27:18;;;;;;;8.52;2.40;;;;;;;12.88;59.95;100524.88;4927564;28;100540;-85
2024/04/04 02:29:44;;;;;;;10.82;2.08;;;;;;;12.92;60.08;100523.13;4921804;28;100231;-85
2024/04/04 02:32:10;;;;;;;11.55;2.85;;;;;;;12.95;59.97;100515.25;4925818;28;96899;-85
2024/04/04 02:34:35;;;;;;;14.35;2.88;;;;;;;12.99;60.00;100508.28;4945189;28;96810;-85
2024/04/04 02:37:01;;;;;;;13.10;2.38;;;;;;;13.00;59.93;100503.03;4943598;28;100239;-85
2024/04/04 02:39:28;;;;;;;8.95;2.00;;;;;;;13.03;59.92;100500.41;4937976;28;97507;-85
2024/04/04 02:41:54;;;;;;;10.75;2.45;;;;;;;13.04;60.05;100494.28;4944193;28;97046;-85
2024/04/04 02:44:19;;;;;;;10.63;2.47;;;;;;;13.06;59.97;100494.28;4946507;28;96989;-85
2024/04/04 02:46:46;;;;;;;12.27;2.25;;;;;;;13.08;60.10;100485.56;4946768;28;98018;-85
2024/04/04 02:49:11;;;;;;;8.25;2.38;;;;;;;13.11;60.11;100484.69;4948389;28;100619;-85
2024/04/04 02:51:37;;;;;;;9.60;2.20;;;;;;;13.12;60.13;100474.19;4948347;28;97402;-85
2024/04/04 02:54:04;;;;;;;11.27;2.17;;;;;;;13.14;60.16;100471.56;4951205;28;97030;-85
2024/04/04 02:56:29;;;;;;;12.25;2.03;;;;;;;13.17;60.29;100457.59;4931816;28;100794;-85
2024/04/04 02:58:55;;;;;;;8.50;2.65;;;;;;;13.19;60.22;100453.22;4945415;28;97496;-85
2024/04/04 03:01:20;;;;;;;11.00;2.10;;;;;;;13.21;60.26;100449.72;4947273;28;96833;-85
2024/04/04 03:03:46;;;;;;;10.40;2.20;;;;;;;13.22;60.24;100453.19;4945378;28;110650;-85
2024/04/04 03:06:11;;;;;;;10.77;2.35;;;;;;;13.22;60.19;100443.59;4948258;28;97756;-85
2024/04/04 03:08:37;;;;;;;9.63;1.92;;;;;;;13.22;60.22;100442.72;4945410;28;97542;-85
2024/04/04 03:11:03;;;;;;;5.88;1.67;;;;;;;13.22;60.31;100443.59;4945329;28;96841;-87
2024/04/04 03:13:33;;;;;;;9.27;2.28;;;;;;;13.22;60.27;100440.09;4945920;28;96923;-87
2024/04/04 03:15:59;;;;;;;9.07;2.05;;;;;;;13.22;60.12;100434.88;4940097;28;100539;-87
2024/04/04 03:18:24;;;;;;;9.75;2.00;;;;;;;13.20;60.39;100429.63;4945691;28;100079;-87
2024/04/04 03:20:50;;;;;;;8.88;2.42;;;;;;;13.17;60.30;100429.63;4935832;28;96840;-87
2024/04/04 03:23:16;;;;;;;11.27;1.95;;;;;;;13.16;60.34;100422.69;4946292;28;96942;-87
2024/04/04 03:25:41;;;;;;;9.55;2.20;;;;;;;13.16;60.48;100421.81;4955690;28;100679;-86
2024/04/04 03:28:07;;;;;;;8.95;1.98;;;;;;;13.14;60.60;100417.44;4930427;28;100372;-86
2024/04/04 03:30:33;;;;;;;7.60;1.98;;;;;;;13.14;60.54;100404.34;4931123;28;96921;-85
2024/04/04 03:32:58;;;;;;;9.65;1.95;;;;;;;13.16;60.61;100408.72;4932099;28;96962;-85
2024/04/04 03:35:25;;;;;;;6.90;1.75;;;;;;;13.17;60.72;100403.44;4929099;28;100333;-85
2024/04/04 03:37:51;;;;;;;13.75;2.65;;;;;;;13.18;60.71;100402.59;4931917;28;100592;-85
2024/04/04 03:40:16;;;;;;;10.15;1.90;;;;;;;13.20;60.94;100406.06;4948060;28;97019;-85
2024/04/04 03:42:42;;;;;;;7.20;1.75;;;;;;;13.22;60.94;100398.22;4931168;28;97032;-85
2024/04/04 03:45:14;;;;;;;10.10;2.10;;;;;;;13.23;60.88;100394.72;4932880;28;100728;-86
2024/04/04 03:47:40;;;;;;;7.82;2.33;;;;;;;13.25;60.72;100377.25;4919873;28;100507;-85
2024/04/04 03:50:06;;;;;;;8.43;1.85;;;;;;;13.24;60.94;100381.59;4931872;28;96928;-85
2024/04/04 03:52:31;;;;;;;6.78;1.77;;;;;;;13.24;60.86;100371.13;4931622;28;96957;-85
2024/04/04 03:54:57;;;;;;;6.70;1.88;;;;;;;13.24;60.89;100368.50;4931852;28;100129;-85
2024/04/04 03:57:24;;;;;;;7.60;2.10;;;;;;;13.25;61.06;100365.00;4947194;28;100264;-85
2024/04/04 03:59:49;;;;;;;5.43;1.73;;;;;;;13.26;61.20;100358.00;4928383;28;96927;-85
2024/04/04 04:02:15;;;;;;;9.60;1.92;;;;;;;13.28;61.20;100357.13;4946793;28;96986;-85
2024/04/04 04:04:40;;;;;;;11.48;2.38;;;;;;;13.29;61.17;100355.38;4947527;28;98827;-85
2024/04/04 04:07:06;;;;;;;7.35;1.90;;;;;;;13.27;61.24;100350.16;4931260;28;100498;-85
2024/04/04 04:09:31;;;;;;;8.02;2.30;;;;;;;13.29;61.46;100350.16;4928062;28;96808;-84
2024/04/04 04:11:57;;;;;;;5.70;2.20;;;;;;;13.27;61.40;100344.06;4959299;28;96811;-85
2024/04/04 04:14:22;;;;;;;7.55;2.08;;;;;;;13.29;61.58;100343.16;4930720;28;99821;-84
2024/04/04 04:16:48;;;;;;;8.65;2.35;;;;;;;13.30;61.49;100344.91;4958460;28;97532;-84
2024/04/04 04:19:14;;;;;;;7.20;2.30;;;;;;;13.31;61.74;100337.94;4946898;28;96729;-84
2024/04/04 04:21:39;;;;;;;3.92;1.88;;;;;;;13.31;61.80;100341.44;4928365;28;96870;-85
2024/04/04 04:24:05;;;;;;;9.27;3.10;;;;;;;13.31;61.83;100333.59;4929040;28;100458;-85
2024/04/04 04:26:31;;;;;;;10.02;2.60;;;;;;;13.31;61.92;100335.31;4944983;28;100525;-85
2024/04/04 04:28:57;;;;;;;7.80;2.60;;;;;;;13.31;62.09;100328.34;4929328;28;97029;-84
2024/04/04 04:31:26;;;;;;;9.48;3.05;;;;;;;13.33;61.95;100330.94;4943902;28;96935;-84
2024/04/04 04:33:57;;;;;;;6.63;2.65;;;;;;;13.33;62.30;100321.34;4945524;28;97913;-84
2024/04/04 04:36:25;;;;;;;8.07;3.22;;;;;;;13.35;62.32;100323.97;4946911;28;100118;-83
2024/04/04 04:38:51;;;;;;;7.82;3.08;;;;;;;13.35;62.44;100316.09;4946206;28;97007;-85
2024/04/04 04:41:17;;;;;;;6.10;3.00;;;;;;;13.35;62.60;100305.63;4929024;28;96989;-84
2024/04/04 04:43:44;;;;;;;8.50;3.22;;;;;;;13.37;62.66;100308.19;4927205;28;100578;-84
2024/04/04 04:46:11;;;;;;;9.75;3.85;;;;;;;13.37;62.92;100298.63;4940773;28;100505;-83
2024/04/04 04:48:37;;;;;;;8.57;3.35;;;;;;;13.40;62.86;100300.34;4933559;28;96941;-84
2024/04/04 04:51:02;;;;;;;7.25;4.03;;;;;;;13.41;62.78;100297.72;4944986;28;96991;-84
2024/04/04 04:53:28;;;;;;;7.93;4.13;;;;;;;13.43;62.78;100297.69;4945920;28;97945;-84
2024/04/04 04:55:53;;;;;;;8.20;4.20;;;;;;;13.43;63.19;100289.84;4944919;28;100300;-84
2024/04/04 04:58:20;;;;;;;10.00;3.92;;;;;;;13.45;62.89;100283.69;4929355;28;96922;-83
2024/04/04 05:00:45;;;;;;;8.48;4.40;;;;;;;13.47;63.11;100275.81;4946370;28;96905;-83
2024/04/04 05:03:11;;;;;;;9.15;4.40;;;;;;;13.49;63.17;100264.47;4936812;28;100560;-83
2024/04/04 05:05:36;;;;;;;10.00;3.55;;;;;;;13.52;62.67;100253.06;4942052;28;100258;-83
2024/04/04 05:08:02;;;;;;;8.68;3.53;;;;;;;13.54;63.17;100255.69;4943697;28;97163;-83
2024/04/04 05:10:29;;;;;;;8.02;3.72;;;;;;;13.54;63.02;100248.69;4927844;28;96939;-83
2024/04/04 05:12:55;;;;;;;7.35;3.60;;;;;;;13.55;63.16;100250.44;4939503;28;97740;-83
2024/04/04 05:15:21;;;;;;;7.73;4.00;;;;;;;13.56;63.38;100243.44;4898406;28;1163663;-83
2024/04/04 05:17:46;;;;;;;8.93;3.92;;;;;;;13.57;63.41;100239.94;4946002;28;96995;-83
2024/04/04 05:20:13;;;;;;;8.25;3.85;;;;;;;13.59;63.42;100244.28;4939754;28;97004;-84
2024/04/04 05:22:43;;;;;;;7.63;3.60;;;;;;;13.62;63.47;100243.41;4944543;28;100730;-84
2024/04/04 05:25:14;;;;;;;6.78;4.22;;;;;;;13.64;63.81;100249.47;4944891;28;100352;-84
2024/04/04 05:27:42;;;;;;;7.53;3.65;;;;;;;13.65;63.67;100246.84;4944243;28;96892;-84
2024/04/04 05:30:14;;;;;;;10.13;4.38;;;;;;;13.66;63.74;100235.47;4945088;28;97231;-84
2024/04/04 05:32:42;;;;;;;6.57;3.83;;;;;;;13.67;63.81;100238.94;4933888;28;100407;-83
2024/04/04 05:35:08;;;;;;;7.75;3.97;;;;;;;13.68;63.83;100238.06;4950896;28;100717;-84
2024/04/04 05:37:36;;;;;;;8.07;4.53;;;;;;;13.67;63.85;100229.34;4940398;28;96884;-84
2024/04/04 05:40:02;;;;;;;9.32;4.50;;;;;;;13.68;63.91;100223.22;4951986;28;96926;-84
2024/04/04 05:42:29;;;;;;;8.38;4.82;;;;;;;13.70;63.98;100226.69;4928871;28;100645;-84
2024/04/04 05:44:54;;;;;;;10.90;5.07;;;;;;;13.74;64.14;100222.28;4942599;28;97546;-84
2024/04/04 05:47:20;;;;;;;8.07;4.68;;;;;;;13.75;64.22;100216.16;4944951;28;96965;-84
2024/04/04 05:49:45;;;;;;;11.15;4.88;;;;;;;13.78;64.42;100217.88;4944515;28;96992;-84
2024/04/04 05:52:11;;;;;;;9.80;4.70;;;;;;;13.80;64.07;100211.75;4936788;28;98114;-84
2024/04/04 05:54:37;;;;;;;12.88;4.93;;;;;;;13.83;64.21;100216.97;4953423;28;97833;-85
2024/04/04 05:57:03;;;;;;;10.77;4.90;;;;;;;13.85;64.35;100217.81;4948104;28;96869;-84
2024/04/04 05:59:29;;;;;;;8.32;5.07;;;;;;;13.88;64.47;100220.38;4945604;28;97089;-84
2024/04/04 06:01:54;;;;;;;10.90;4.75;;;;;;;13.92;64.41;100216.00;4935202;28;100479;-85
2024/04/04 06:04:20;;;;;;;11.38;4.88;;;;;;;13.95;64.42;100215.06;4932273;28;100437;-84
2024/04/04 06:06:45;;;;;;;10.60;4.70;;;;;;;13.96;64.53;100222.94;4945193;28;96854;-85
2024/04/04 06:09:11;;;;;;;9.18;4.45;;;;;;;13.98;64.64;100215.06;4933790;28;96858;-86
2024/04/04 06:11:37;;;;;;;10.20;4.75;;;;;;;13.99;64.66;100212.41;4951713;28;97692;-86
2024/04/04 06:14:02;;;;;;;11.55;4.40;;;;;;;14.02;64.64;100225.47;4948452;28;100713;-85
2024/04/04 06:16:28;;;;;;;9.30;4.38;;;;;;;14.04;64.88;100226.31;4928276;28;97028;-85
2024/04/04 06:18:53;;;;;;;9.70;4.18;;;;;;;14.08;65.05;100219.28;4941202;28;96936;-85
2024/04/04 06:21:19;;;;;;;10.57;3.70;;;;;;;14.09;65.09;100219.25;4930356;28;100358;-86
2024/04/04 06:23:44;;;;;;;8.25;3.42;;;;;;;14.11;64.97;100214.00;4942922;28;97670;-85
2024/04/04 06:26:09;;;;;;;8.02;3.72;;;;;;;14.15;65.05;100204.34;4944993;28;96832;-85
2024/04/04 06:28:35;;;;;;;7.88;3.42;;;;;;;14.18;65.29;100207.78;4944932;28;96904;-85
2024/04/04 06:31:01;;;;;;;8.70;2.88;;;;;;;14.22;65.26;100201.63;4950743;28;100647;-85
2024/04/04 06:33:26;;;;;;;8.73;3.00;;;;;;;14.25;65.26;100208.59;4945891;28;100614;-85
2024/04/04 06:35:52;;;;;;;6.57;2.53;;;;;;;14.28;65.20;100206.81;4930979;28;97019;-85
2024/04/04 06:38:17;;;;;;;9.80;2.63;;;;;;;14.32;65.48;100209.41;4947720;28;96905;-85
2024/04/04 06:40:43;;;;;;;7.07;2.80;;;;;;;14.35;65.55;100202.34;4929922;28;99420;-86
2024/04/04 06:43:08;;;;;;;4.65;2.45;;;;;;;14.39;65.56;100217.16;4949800;28;99889;-85
2024/04/04 06:45:34;;;;;;;6.25;2.40;;;;;;;14.42;65.39;100219.75;4948063;28;97023;-85
2024/04/04 06:48:00;;;;;;;3.58;1.95;;;;;;;14.45;65.28;100216.19;4926726;28;96942;-85
2024/04/04 06:50:26;;;;;;;5.63;2.15;;;;;;;14.47;65.57;100219.66;4946972;28;97916;-85
2024/04/04 06:52:53;;;;;;;5.68;1.92;;;;;;;14.50;65.49;100224.03;4954329;28;100643;-84
2024/04/04 06:55:18;;;;;;;5.68;2.22;;;;;;;14.53;65.77;100222.22;4946883;28;96982;-84
2024/04/04 06:57:44;;;;;;;5.45;2.50;;;;;;;14.54;65.75;100229.19;4938012;28;96844;-84
2024/04/04 07:00:11;;;;;;;4.63;2.20;;;;;;;14.56;65.93;100216.94;4924393;28;100809;-83
2024/04/04 07:02:41;;;;;;;5.55;2.30;;;;;;;14.58;65.98;100217.81;4936196;28;100691;-84
2024/04/04 07:05:07;;;;;;;5.65;2.60;;;;;;;14.62;65.90;100214.25;4944611;28;96892;-83
2024/04/04 07:07:32;;;;;;;5.60;2.08;;;;;;;14.65;66.02;100227.34;4949718;28;96905;-90
2024/04/04 07:09:58;;;;;;;8.50;3.35;;;;;;;14.70;66.08;100216.75;4948978;28;96802;-90
2024/04/04 07:12:23;;;;;;;6.72;2.47;;;;;;;14.72;66.24;100211.50;4949525;28;100691;-90
2024/04/04 07:14:49;;;;;;;8.55;2.95;;;;;;;14.75;66.07;100204.44;4948637;28;96882;-90
2024/04/04 07:17:15;;;;;;;8.75;3.08;;;;;;;14.78;66.17;100217.53;4929581;28;96847;-89
2024/04/04 07:19:40;;;;;;;6.22;2.72;;;;;;;14.82;66.42;100206.06;4939762;28;101165;-90
2024/04/04 07:22:06;;;;;;;10.25;2.80;;;;;;;14.85;66.17;100213.06;4945679;28;100013;-89
2024/04/04 07:24:31;;;;;;;8.13;2.83;;;;;;;14.88;66.29;100209.50;4949252;28;96775;-91
2024/04/04 07:26:57;;;;;;;8.35;2.58;;;;;;;14.91;66.31;100218.19;4951412;28;96829;-90
2024/04/04 07:29:22;;;;;;;9.73;3.20;;;;;;;14.94;66.32;100204.16;4932833;28;100685;-90
2024/04/04 07:31:49;;;;;;;9.10;3.05;;;;;;;14.97;66.40;100197.13;4954429;28;96794;-91
2024/04/04 07:34:15;;;;;;;8.55;2.88;;;;;;;15.01;66.47;100185.66;4952048;28;96794;-91
2024/04/04 07:36:40;;;;;;;7.75;2.67;;;;;;;15.04;66.16;100196.13;4952510;28;96836;-89
2024/04/04 07:39:06;;;;;;;7.75;2.72;;;;;;;15.06;66.26;100200.47;4918741;28;100872;-91
2024/04/04 07:41:31;;;;;;;7.13;2.55;;;;;;;15.07;66.25;100194.34;4946180;28;97510;-91
2024/04/04 07:43:59;;;;;;;8.00;2.50;;;;;;;15.09;66.46;100203.06;4949303;28;96714;-91
2024/04/04 07:46:25;;;;;;;7.53;2.50;;;;;;;15.11;66.33;100189.00;4937250;28;96766;-90
2024/04/04 07:48:51;;;;;;;10.13;3.13;;;;;;;15.14;66.40;100191.56;4958536;28;99530;-91
2024/04/04 07:51:18;;;;;;;7.45;3.22;;;;;;;15.18;66.40;100195.88;4952995;28;100423;-91
2024/04/04 07:53:43;;;;;;;10.48;3.65;;;;;;;15.20;66.66;100190.59;4933135;28;96874;-91
2024/04/04 07:56:11;;;;;;;10.73;3.45;;;;;;;15.23;66.50;100180.03;4940579;28;97052;-90
2024/04/04 07:58:37;;;;;;;10.95;3.45;;;;;;;15.26;66.54;100193.13;4936622;28;100244;-90
2024/04/04 08:01:04;;;;;;;10.15;3.67;;;;;;;15.29;66.66;100195.69;4936628;28;99239;-89
2024/04/04 08:03:32;;;;;;;8.70;3.72;;;;;;;15.33;66.72;100192.13;4953046;28;96797;-92
2024/04/04 08:05:57;;;;;;;9.00;3.15;;;;;;;15.35;66.57;100194.75;4953135;28;96866;-91
2024/04/04 08:08:23;;;;;;;7.82;2.70;;;;;;;15.36;66.73;100207.81;4957056;28;97821;-91
2024/04/04 08:10:49;;;;;;;9.50;2.75;;;;;;;15.40;66.72;100198.13;4937637;28;100174;-91
2024/04/04 08:13:15;;;;;;;10.13;2.50;;;;;;;15.42;66.63;100202.47;4937618;28;96696;-91
2024/04/04 08:15:41;;;;;;;7.95;2.83;;;;;;;15.45;66.57;100205.94;4959558;28;96907;-91
2024/04/04 08:18:06;;;;;;;11.07;2.40;;;;;;;15.46;66.70;100207.69;4936348;28;100164;-91
2024/04/04 08:20:32;;;;;;;8.98;2.80;;;;;;;15.49;66.59;100208.50;4953243;28;99025;-90
2024/04/04 08:22:58;;;;;;;10.15;2.35;;;;;;;15.50;66.52;100215.47;4953295;28;96805;-91
2024/04/04 08:25:24;;;;;;;10.30;2.72;;;;;;;15.51;66.47;100213.72;4953324;28;96871;-91
2024/04/04 08:27:49;;;;;;;8.32;2.45;;;;;;;15.54;66.70;100218.91;4955375;28;96823;-90
2024/04/04 08:30:15;;;;;;;6.05;2.42;;;;;;;15.56;66.72;100212.75;4936207;28;100427;-90
2024/04/04 08:32:41;;;;;;;8.57;2.35;;;;;;;15.59;66.78;100217.94;4952825;28;96705;-90
2024/04/04 08:35:09;;;;;;;7.57;2.33;;;;;;;15.63;66.71;100226.63;4952966;28;96868;-90
2024/04/04 08:37:35;;;;;;;6.85;2.08;;;;;;;15.65;66.29;100216.09;4935947;28;100481;-91
2024/04/04 08:40:03;;;;;;;8.18;2.30;;;;;;;15.68;66.45;100213.41;4950819;28;100662;-90
2024/04/04 08:42:29;;;;;;;8.80;2.53;;;;;;;15.69;66.54;100221.28;4952238;28;96762;-91
2024/04/04 08:44:56;;;;;;;8.82;2.13;;;;;;;15.69;66.34;100225.69;4950904;28;96863;-90
2024/04/04 08:47:23;;;;;;;9.55;2.40;;;;;;;15.68;66.13;100230.03;4948465;28;100259;-89
2024/04/04 08:49:50;;;;;;;10.55;2.08;;;;;;;15.66;66.01;100237.09;4931232;28;99992;-89
2024/04/04 08:52:16;;;;;;;6.85;1.85;;;;;;;15.63;66.12;100234.50;4949478;28;96959;-90
2024/04/04 08:54:42;;;;;;;5.93;2.47;;;;;;;15.60;66.00;100239.84;4950078;28;97091;-90
2024/04/04 08:57:08;;;;;;;8.88;1.83;;;;;;;15.60;66.28;100245.97;4950155;28;99668;-91
2024/04/04 08:59:34;;;;;;;5.35;1.85;;;;;;;15.59;66.21;100251.25;4952006;28;97856;-90
2024/04/04 09:02:00;;;;;;;6.72;2.03;;;;;;;15.59;66.29;100256.50;4933934;28;96856;-88
2024/04/04 09:04:27;;;;;;;6.15;1.75;;;;;;;15.60;66.16;100255.63;4950524;28;96780;-91
2024/04/04 09:06:53;;;;;;;4.38;1.67;;;;;;;15.59;66.08;100256.50;4948882;28;97932;-89
2024/04/04 09:09:19;;;;;;;5.63;1.75;;;;;;;15.58;65.97;100262.69;4932718;28;100199;-89
2024/04/04 09:11:45;;;;;;;9.07;1.63;;;;;;;15.55;65.93;100281.13;4947364;28;96859;-89
2024/04/04 09:14:11;;;;;;;4.18;1.52;;;;;;;15.50;65.73;100288.22;4950800;28;96795;-91
2024/04/04 09:16:37;;;;;;;4.47;1.48;;;;;;;15.42;65.54;100283.09;4947919;28;100866;-90
2024/04/04 09:19:17;;;;;;;3.80;1.70;;;;;;;15.35;65.68;100284.94;4940044;28;100227;-92
2024/04/04 09:21:46;;;;;;;3.33;1.27;;;;;;;15.27;65.20;100292.06;4951662;28;96864;-91
2024/04/04 09:24:13;;;;;;;;;;;;;;;15.12;65.27;100287.06;4932429;28;96828;-90
2024/04/04 09:26:39;;;;;;;5.30;1.10;;;;;;;15.06;65.17;100302.91;4937767;28;99241;-90
2024/04/04 09:29:05;;;;;;;7.38;1.15;;;;;;;14.93;64.79;100302.22;4951930;28;99315;-90
2024/04/04 09:31:34;;;;;;;5.93;1.27;;;;;;;14.79;64.94;100300.63;4951692;28;96735;-90
2024/04/04 09:34:01;;;;;;;4.43;1.20;;;;;;;14.71;65.22;100301.66;4947420;28;96827;-83
2024/04/04 09:36:29;;;;;;;5.50;1.33;;;;;;;14.65;65.79;100295.59;4944401;28;98037;-84
2024/04/04 09:38:56;;;;;;;4.70;0.98;;;;;;;14.62;66.13;100298.25;4929146;28;99752;-84
2024/04/04 09:41:22;;;;;;;5.38;1.48;;;;;;;14.62;66.18;100293.00;4945374;28;97241;-84
2024/04/04 09:43:48;;;;;;;6.60;1.52;;;;;;;14.68;67.15;100301.69;4943893;28;96909;-84
2024/04/04 09:46:19;;;;;;;5.63;1.42;;;;;;;14.94;69.69;100299.56;4948781;28;97607;-84
2024/04/04 09:48:45;;;;;;;5.75;1.67;;;;;;;15.69;70.93;100297.53;4945345;28;100073;-85
2024/04/04 09:51:12;;;;;;;5.25;1.48;;;;;;;16.51;70.35;100294.25;4929517;28;96807;-84
2024/04/04 09:53:38;;;;;;;5.70;2.05;;;;;;;16.81;67.79;100298.88;4928798;28;96882;-84
2024/04/04 09:56:05;;;;;;;7.68;1.65;;;;;;;16.73;66.68;100289.38;4945832;28;97782;-84
2024/04/04 09:58:32;;;;;;;5.53;1.70;;;;;;;16.63;65.18;100300.13;4929393;28;100546;-84
2024/04/04 10:01:29;;;;;;;6.05;1.77;;;;;;;16.48;64.60;100304.81;4935635;28;96942;-84
2024/04/04 10:03:54;;;;;;;10.07;1.73;;;;;;;16.42;64.69;100296.22;4945238;28;97152;-84
2024/04/04 10:06:40;;;;;;;8.63;1.73;;;;;;;16.34;64.62;100310.34;4945482;28;97689;-83
2024/04/04 10:09:20;;;;;;;6.55;1.88;;;;;;;16.32;64.91;100306.03;4935125;28;97819;-83
2024/04/04 10:11:46;;;;;;;6.97;1.77;;;;;;;16.33;65.04;100324.44;4934197;28;97165;-84
2024/04/04 10:14:16;;;;;;;7.72;2.45;;;;;;;16.36;65.12;100319.13;4943469;28;96879;-84
2024/04/04 10:16:47;;;;;;;10.13;1.80;;;;;;;16.42;65.32;100322.53;4923664;28;100331;-84
2024/04/04 10:19:17;;;;;;;7.47;1.77;;;;;;;16.56;65.41;100329.25;4939080;28;97567;-83
2024/04/04 10:21:44;;;;;;;9.23;2.25;;;;;;;16.74;66.00;100322.72;4942722;28;96733;-84
2024/04/04 10:24:22;;;;;;;8.57;1.60;;;;;;;16.98;65.41;100319.63;4945885;28;96981;-83
2024/04/04 10:27:02;;;;;;;9.45;1.42;;;;;;;17.27;65.85;100326.84;4928770;28;97765;-84
2024/04/04 10:29:36;;;;;;;5.38;1.13;;;;;;;17.59;64.56;100335.75;4946089;28;100635;-83
2024/04/04 10:32:02;;;;;;;9.40;1.30;;;;;;;17.78;62.92;100325.63;4929540;28;96875;-84
2024/04/04 10:34:28;;;;;;;6.70;0.98;;;;;;;17.87;62.27;100333.34;4946072;28;96798;-84
2024/04/04 10:36:53;;;;;;;5.43;0.93;;;;;;;17.98;62.06;100333.91;4945513;28;97923;-83
2024/04/04 10:39:21;;;;;;;8.73;1.20;;;;;;;18.10;60.96;100340.66;4929352;28;100974;-83
2024/04/04 10:41:49;;;;;;;5.35;1.13;;;;;;;18.15;60.05;100341.41;4944744;28;96862;-84
2024/04/04 10:44:19;;;;;;;5.40;1.10;;;;;;;18.18;58.66;100336.06;4943548;28;96855;-85
2024/04/04 10:46:49;;;;;;;7.95;1.17;;;;;;;18.20;59.06;100322.78;4937829;28;97846;-83
2024/04/04 10:49:16;;;;;;;7.68;1.30;;;;;;;18.28;59.45;100328.72;4924989;28;100315;-84
2024/04/04 10:51:48;;;;;;;7.45;1.00;;;;;;;18.40;59.14;100316.97;4944280;28;96848;-83
2024/04/04 10:54:15;;;;;;;7.35;1.45;;;;;;;18.55;58.72;100326.22;4927394;28;97092;-83
2024/04/04 10:56:40;;;;;;;6.13;1.05;;;;;;;18.74;57.79;100332.72;4945479;28;98075;-85
2024/04/04 10:59:06;;;;;;;4.63;0.93;;;;;;;18.91;58.07;100332.25;4920227;28;100518;-84
2024/04/04 11:01:32;;;;;;;5.20;1.23;;;;;;;19.12;57.39;100328.06;4926120;28;96854;-84
2024/04/04 11:03:58;;;;;;;6.05;1.15;;;;;;;19.29;57.31;100322.25;4941557;28;96961;-86
2024/04/04 11:06:28;;;;;;;10.45;1.73;;;;;;;19.45;56.43;100340.25;4912506;28;100640;-85
2024/04/04 11:08:54;;;;;;;9.27;1.23;;;;;;;19.52;55.14;100334.75;4918598;28;100558;-86
2024/04/04 11:11:22;;;;;;;7.55;1.55;;;;;;;19.52;55.35;100333.88;4948232;28;96778;-84
2024/04/04 11:13:51;;;;;;;11.23;1.55;;;;;;;19.57;56.32;100326.63;4954609;28;96994;-84
2024/04/04 11:16:18;;;;;;;10.65;1.40;;;;;;;19.77;56.44;100329.53;4938947;28;101254;-85